createdAt,value
2022-11-05T00:01:45.359Z,25.80
2022-11-05T00:04:31.320Z,25.88
2022-11-05T00:07:19.681Z,23.52
2022-11-05T00:09:47.237Z,23.85
2022-11-05T00:12:33.223Z,23.05
2022-11-05T00:15:19.424Z,22.90
2022-11-05T00:17:46.696Z,22.60
2022-11-05T00:20:13.855Z,23.38
2022-11-05T00:22:59.750Z,23.05
2022-11-05T00:25:29.800Z,24.17
2022-11-05T00:28:00.856Z,21.48
2022-11-05T00:30:28.207Z,22.98
2022-11-05T00:32:55.348Z,22.02
2022-11-05T00:35:23.252Z,22.33
2022-11-05T00:37:50.842Z,23.23
2022-11-05T00:40:18.134Z,23.67
2022-11-05T00:43:04.517Z,24.52
2022-11-05T00:45:31.876Z,23.63
2022-11-05T00:48:17.635Z,23.70
2022-11-05T00:50:44.752Z,23.98
2022-11-05T00:53:12.166Z,25.00
2022-11-05T00:55:48.520Z,23.23
2022-11-05T00:58:17.021Z,22.17
2022-11-05T01:00:45.770Z,23.77
2022-11-05T01:03:14.206Z,24.30
2022-11-05T01:05:43.419Z,24.77
2022-11-05T01:08:11.103Z,24.00
2022-11-05T01:10:42.315Z,24.52
2022-11-05T01:13:12.913Z,22.98
2022-11-05T01:15:40.902Z,24.35
2022-11-05T01:18:08.386Z,23.83
2022-11-05T01:20:35.589Z,23.42
2022-11-05T01:23:02.927Z,23.45
2022-11-05T01:25:30.302Z,24.33
2022-11-05T01:27:57.428Z,23.05
2022-11-05T01:30:24.540Z,23.85
2022-11-05T01:32:51.755Z,24.60
2022-11-05T01:35:19.084Z,24.70
2022-11-05T01:37:46.697Z,23.35
2022-11-05T01:40:15.602Z,25.63
2022-11-05T01:42:42.889Z,23.95
2022-11-05T01:45:16.456Z,24.50
2022-11-05T01:48:02.229Z,24.88
2022-11-05T01:50:29.472Z,23.23
2022-11-05T01:53:00.650Z,24.23
2022-11-05T01:55:29.234Z,23.60
2022-11-05T01:57:58.308Z,24.70
2022-11-05T02:00:25.536Z,25.42
2022-11-05T02:02:52.854Z,23.23
2022-11-05T02:05:20.097Z,23.65
2022-11-05T02:07:47.891Z,21.42
2022-11-05T02:10:15.872Z,21.80
2022-11-05T02:12:44.434Z,22.38
2022-11-05T02:15:12.642Z,21.55
2022-11-05T02:17:49.090Z,23.13
2022-11-05T02:20:16.174Z,21.42
2022-11-05T02:23:02.312Z,19.65
2022-11-05T02:25:35.693Z,21.90
2022-11-05T02:28:05.620Z,20.55
2022-11-05T02:30:32.724Z,23.65
2022-11-05T02:33:18.409Z,21.83
2022-11-05T02:36:02.952Z,24.63
2022-11-05T02:38:36.327Z,24.98
2022-11-05T02:41:15.219Z,25.08
2022-11-05T02:43:42.397Z,24.95
2022-11-05T02:46:31.362Z,25.65
2022-11-05T02:49:01.444Z,23.92
2022-11-05T02:51:33.687Z,22.27
2022-11-05T02:54:13.522Z,21.13
2022-11-05T02:56:42.558Z,19.98
2022-11-05T02:59:09.784Z,21.95
2022-11-05T03:01:37.748Z,19.02
2022-11-05T03:04:07.498Z,19.75
2022-11-05T03:06:40.915Z,21.77
2022-11-05T03:09:10.751Z,19.15
2022-11-05T03:11:47.884Z,20.15
2022-11-05T03:14:33.855Z,17.77
2022-11-05T03:17:06.497Z,16.60
2022-11-05T03:19:50.469Z,19.23
2022-11-05T03:22:29.529Z,18.63
2022-11-05T03:24:58.962Z,19.02
2022-11-05T03:27:32.007Z,19.42
2022-11-05T03:30:04.964Z,19.80
2022-11-05T03:32:33.680Z,18.00
2022-11-05T03:35:02.906Z,18.02
2022-11-05T03:37:32.637Z,19.25
2022-11-05T03:40:01.199Z,20.80
2022-11-05T03:42:30.652Z,20.50
2022-11-05T03:44:59.442Z,21.52
2022-11-05T03:47:29.244Z,24.83
2022-11-05T03:49:59.918Z,22.90
2022-11-05T03:52:29.814Z,21.92
2022-11-05T03:54:57.154Z,21.60
2022-11-05T03:57:32.283Z,22.13
2022-11-05T03:59:59.447Z,21.10
2022-11-05T04:02:27.631Z,21.17
2022-11-05T04:04:55.036Z,18.58
2022-11-05T04:07:41.136Z,19.20
2022-11-05T04:10:27.403Z,19.15
2022-11-05T04:13:13.556Z,19.98
2022-11-05T04:15:59.596Z,18.15
2022-11-05T04:18:26.727Z,20.73
2022-11-05T04:21:12.622Z,20.77
2022-11-05T04:24:00.032Z,20.08
2022-11-05T04:26:27.204Z,20.48
2022-11-05T04:29:13.093Z,21.08
2022-11-05T04:31:40.294Z,20.83
2022-11-05T04:34:07.410Z,21.23
2022-11-05T04:36:34.575Z,19.73
2022-11-05T04:39:01.737Z,20.27
2022-11-05T04:41:28.909Z,20.77
2022-11-05T04:43:56.030Z,18.90
2022-11-05T04:46:23.188Z,20.38
2022-11-05T04:48:50.361Z,20.85
2022-11-05T04:51:17.474Z,20.30
2022-11-05T04:53:44.686Z,20.42
2022-11-05T04:56:22.266Z,20.67
2022-11-05T04:58:49.619Z,21.05
2022-11-05T05:01:18.363Z,21.65
2022-11-05T05:03:47.230Z,22.25
2022-11-05T05:06:14.413Z,21.98
2022-11-05T05:08:41.527Z,22.02
2022-11-05T05:11:09.831Z,23.02
2022-11-05T05:13:37.220Z,21.95
2022-11-05T05:16:08.482Z,23.25
2022-11-05T05:21:21.896Z,20.30
2022-11-05T05:23:49.185Z,20.83
2022-11-05T05:26:17.017Z,20.77
2022-11-05T05:28:44.348Z,21.52
2022-11-05T05:31:11.543Z,21.35
2022-11-05T05:33:38.687Z,21.75
2022-11-05T05:36:11.099Z,20.23
2022-11-05T05:38:38.719Z,21.45
2022-11-05T05:41:05.975Z,20.83
2022-11-05T05:43:33.837Z,21.98
2022-11-05T05:46:04.844Z,21.70
2022-11-05T05:48:32.427Z,21.42
2022-11-05T05:51:07.175Z,21.60
2022-11-05T05:53:34.598Z,20.83
2022-11-05T05:56:01.868Z,19.50
2022-11-05T05:58:32.541Z,18.25
2022-11-05T06:01:03.938Z,20.63
2022-11-05T06:03:31.255Z,18.00
2022-11-05T06:06:05.508Z,18.45
2022-11-05T06:08:32.636Z,19.60
2022-11-05T06:11:00.846Z,19.67
2022-11-05T06:13:28.195Z,18.75
2022-11-05T06:16:00.208Z,20.83
2022-11-05T06:18:27.357Z,20.42
2022-11-05T06:20:56.018Z,21.67
2022-11-05T06:23:23.134Z,20.98
2022-11-05T06:25:50.298Z,19.70
2022-11-05T06:28:17.547Z,18.50
2022-11-05T06:30:50.557Z,20.42
2022-11-05T06:33:17.722Z,20.15
2022-11-05T06:35:44.883Z,19.83
2022-11-05T06:38:12.031Z,20.25
2022-11-05T06:40:39.211Z,19.15
2022-11-05T06:43:06.340Z,18.63
2022-11-05T06:45:33.507Z,19.60
2022-11-05T06:48:00.750Z,19.50
2022-11-05T06:50:28.756Z,18.95
2022-11-05T06:53:00.463Z,17.83
2022-11-05T06:55:28.986Z,18.75
2022-11-05T06:57:56.303Z,20.17
2022-11-05T07:00:24.065Z,19.67
2022-11-05T07:02:51.301Z,19.33
2022-11-05T07:05:18.450Z,19.75
2022-11-05T07:07:45.843Z,18.83
2022-11-05T07:10:14.282Z,19.65
2022-11-05T07:12:41.551Z,18.63
2022-11-05T07:15:09.060Z,18.55
2022-11-05T07:17:36.277Z,20.38
2022-11-05T07:20:03.881Z,18.92
2022-11-05T07:22:31.107Z,19.60
2022-11-05T07:24:58.398Z,18.73
2022-11-05T07:27:25.602Z,18.20
2022-11-05T07:29:52.755Z,18.33
2022-11-05T07:32:20.043Z,18.10
2022-11-05T07:34:47.206Z,19.95
2022-11-05T07:37:16.630Z,18.60
2022-11-05T07:39:43.815Z,19.20
2022-11-05T07:42:14.452Z,17.05
2022-11-05T07:44:41.686Z,18.55
2022-11-05T07:47:08.937Z,18.30
2022-11-05T07:49:36.075Z,17.50
2022-11-05T07:52:03.236Z,19.80
2022-11-05T07:54:30.510Z,18.00
2022-11-05T07:56:57.633Z,23.05
2022-11-05T07:59:24.768Z,22.33
2022-11-05T08:01:52.220Z,23.75
2022-11-05T08:04:19.544Z,24.75
2022-11-05T08:06:46.636Z,26.83
2022-11-05T08:09:13.834Z,29.13
2022-11-05T08:11:40.939Z,29.38
2022-11-05T08:14:08.077Z,29.75
2022-11-05T08:16:35.239Z,24.08
2022-11-05T08:19:02.359Z,25.05
2022-11-05T08:21:29.475Z,24.23
2022-11-05T08:23:56.638Z,25.55
2022-11-05T08:26:23.768Z,25.45
2022-11-05T08:28:50.886Z,25.20
2022-11-05T08:31:18.243Z,25.13
2022-11-05T08:33:45.396Z,25.67
2022-11-05T08:36:12.582Z,20.83
2022-11-05T08:38:39.775Z,20.17
2022-11-05T08:41:06.924Z,21.40
2022-11-05T08:43:34.120Z,22.00
2022-11-05T08:46:02.561Z,20.77
2022-11-05T08:48:29.765Z,20.17
2022-11-05T08:50:56.877Z,18.77
2022-11-05T08:53:24.213Z,19.90
2022-11-05T08:55:51.603Z,22.55
2022-11-05T08:58:20.730Z,21.40
2022-11-05T09:00:49.383Z,22.00
2022-11-05T09:03:16.843Z,22.58
2022-11-05T09:05:44.076Z,20.85
2022-11-05T09:08:12.791Z,23.23
2022-11-05T09:10:40.378Z,25.35
2022-11-05T09:13:09.630Z,23.88
2022-11-05T09:15:41.161Z,24.33
2022-11-05T09:18:10.345Z,24.85
2022-11-05T09:20:39.578Z,22.25
2022-11-05T09:23:07.998Z,20.73
2022-11-05T09:25:35.400Z,21.85
2022-11-05T09:28:11.385Z,24.05
2022-11-05T09:30:41.587Z,23.20
2022-11-05T09:33:09.208Z,22.02
2022-11-05T09:35:38.847Z,21.23
2022-11-05T09:38:06.200Z,23.95
2022-11-05T09:40:36.472Z,23.30
2022-11-05T09:43:04.317Z,22.00
2022-11-05T09:45:32.676Z,23.58
2022-11-05T09:48:01.766Z,23.42
2022-11-05T09:50:34.635Z,22.88
2022-11-05T09:53:02.253Z,21.73
2022-11-05T09:55:29.401Z,21.90
2022-11-05T09:58:00.853Z,18.70
2022-11-05T10:00:28.581Z,20.38
2022-11-05T10:02:58.026Z,18.70
2022-11-05T10:05:26.329Z,24.60
2022-11-05T10:07:56.222Z,19.92
2022-11-05T10:10:29.385Z,19.70
2022-11-05T10:13:16.732Z,19.25
2022-11-05T10:15:53.876Z,20.30
2022-11-05T10:18:25.344Z,20.42
2022-11-05T10:20:52.635Z,20.60
2022-11-05T10:23:20.747Z,19.40
2022-11-05T10:26:09.232Z,19.35
2022-11-05T10:28:36.892Z,19.60
2022-11-05T10:31:08.891Z,19.95
2022-11-05T10:33:40.483Z,17.85
2022-11-05T10:36:10.091Z,18.15
2022-11-05T10:38:37.390Z,17.55
2022-11-05T10:41:13.847Z,19.65
2022-11-05T10:43:45.439Z,18.63
2022-11-05T10:46:12.588Z,19.70
2022-11-05T10:48:48.635Z,16.98
2022-11-05T10:51:15.920Z,17.55
2022-11-05T10:53:49.390Z,17.55
2022-11-05T10:56:36.855Z,18.00
2022-11-05T10:59:10.972Z,18.75
2022-11-05T11:01:39.414Z,21.85
2022-11-05T11:04:08.707Z,17.60
2022-11-05T11:06:39.078Z,17.65
2022-11-05T11:09:07.437Z,18.37
2022-11-05T11:11:35.788Z,19.83
2022-11-05T11:14:12.165Z,19.92
2022-11-05T11:16:43.602Z,19.50
2022-11-05T11:19:29.218Z,18.83
2022-11-05T11:22:05.579Z,18.10
2022-11-05T11:24:38.176Z,21.75
2022-11-05T11:27:07.432Z,24.90
2022-11-05T11:29:40.517Z,17.30
2022-11-05T11:32:13.329Z,18.38
2022-11-05T11:34:41.714Z,17.60
2022-11-05T11:37:19.568Z,16.13
2022-11-05T11:39:49.730Z,17.25
2022-11-05T11:42:23.107Z,17.63
2022-11-05T11:44:50.948Z,15.45
2022-11-05T11:47:19.484Z,17.05
2022-11-05T11:49:48.081Z,17.05
2022-11-05T11:52:16.920Z,17.08
2022-11-05T11:54:44.038Z,16.92
2022-11-05T11:57:25.181Z,19.60
2022-11-05T12:00:09.681Z,19.35
2022-11-05T12:03:12.134Z,18.15
2022-11-05T12:05:42.200Z,16.40
2022-11-05T12:08:17.411Z,17.67
2022-11-05T12:10:49.383Z,18.52
2022-11-05T12:13:19.876Z,16.92
2022-11-05T12:15:46.986Z,19.05
2022-11-05T12:18:16.917Z,19.35
2022-11-05T12:21:03.308Z,18.75
2022-11-05T12:23:30.411Z,19.67
2022-11-05T12:25:57.504Z,19.48
2022-11-05T12:28:27.595Z,19.40
2022-11-05T12:30:59.310Z,18.98
2022-11-05T12:33:42.279Z,19.75
2022-11-05T12:36:21.868Z,24.08
2022-11-05T12:39:15.372Z,22.23
2022-11-05T12:41:54.570Z,24.23
2022-11-05T12:44:21.779Z,23.17
2022-11-05T12:46:54.606Z,22.35
2022-11-05T12:49:43.218Z,22.92
2022-11-05T12:52:10.309Z,23.00
2022-11-05T12:54:43.814Z,22.48
2022-11-05T12:57:14.791Z,23.98
2022-11-05T13:00:08.525Z,24.23
2022-11-05T13:02:35.751Z,23.05
2022-11-05T13:05:07.763Z,23.17
2022-11-05T13:07:36.789Z,25.50
2022-11-05T13:10:03.879Z,22.15
2022-11-05T13:12:32.734Z,21.10
2022-11-05T13:15:26.496Z,20.80
2022-11-05T13:17:56.045Z,21.77
2022-11-05T13:20:25.461Z,22.50
2022-11-05T13:23:07.257Z,21.73
2022-11-05T13:25:38.296Z,22.48
2022-11-05T13:28:17.299Z,20.48
2022-11-05T13:30:46.690Z,22.58
2022-11-05T13:33:20.465Z,20.63
2022-11-05T13:36:11.835Z,21.00
2022-11-05T13:38:59.748Z,24.65
2022-11-05T13:41:29.854Z,21.15
2022-11-05T13:43:59.895Z,19.52
2022-11-05T13:46:32.772Z,18.45
2022-11-05T13:49:11.495Z,18.13
2022-11-05T13:51:49.739Z,17.65
2022-11-05T13:54:35.033Z,16.60
2022-11-05T13:57:13.664Z,17.98
2022-11-05T13:59:40.898Z,19.52
2022-11-05T14:02:15.816Z,18.60
2022-11-05T14:04:47.040Z,16.02
2022-11-05T14:07:25.496Z,17.00
2022-11-05T14:10:03.201Z,15.93
2022-11-05T14:12:32.378Z,18.10
2022-11-05T14:15:02.117Z,17.38
2022-11-05T14:17:32.323Z,17.05
2022-11-05T14:20:05.597Z,19.70
2022-11-05T14:22:32.763Z,16.67
2022-11-05T14:25:19.865Z,16.30
2022-11-05T14:27:48.573Z,16.13
2022-11-05T14:30:38.582Z,16.13
2022-11-05T14:33:30.649Z,16.85
2022-11-05T14:36:16.327Z,15.02
2022-11-05T14:38:47.992Z,15.85
2022-11-05T14:41:15.283Z,18.58
2022-11-05T14:43:47.516Z,18.27
2022-11-05T14:46:14.900Z,22.20
2022-11-05T14:48:42.103Z,22.73
2022-11-05T14:51:29.451Z,20.80
2022-11-05T14:54:23.174Z,23.15
2022-11-05T14:57:00.445Z,20.67
2022-11-05T14:59:36.357Z,20.55
2022-11-05T15:02:16.132Z,20.30
2022-11-05T15:04:45.555Z,21.80
2022-11-05T15:07:14.847Z,22.90
2022-11-05T15:09:43.637Z,23.17
2022-11-05T15:12:11.383Z,19.73
2022-11-05T15:14:42.394Z,19.40
2022-11-05T15:17:15.086Z,18.45
2022-11-05T15:19:42.941Z,19.92
2022-11-05T15:22:30.632Z,20.67
2022-11-05T15:24:57.921Z,20.23
2022-11-05T15:27:33.856Z,19.70
2022-11-05T15:30:05.797Z,18.88
2022-11-05T15:32:38.327Z,17.52
2022-11-05T15:35:18.141Z,16.00
2022-11-05T15:37:54.687Z,17.27
2022-11-05T15:40:27.965Z,17.25
2022-11-05T15:43:30.366Z,17.98
2022-11-05T15:46:05.124Z,17.83
2022-11-05T15:48:32.812Z,19.63
2022-11-05T15:51:00.356Z,19.08
2022-11-05T15:53:51.537Z,18.42
2022-11-05T15:56:25.596Z,18.67
2022-11-05T15:59:03.124Z,19.77
2022-11-05T16:01:32.959Z,21.23
2022-11-05T16:04:07.174Z,22.95
2022-11-05T16:06:38.295Z,19.58
2022-11-05T16:09:05.963Z,21.80
2022-11-05T16:11:33.229Z,20.65
2022-11-05T16:14:17.311Z,21.45
2022-11-05T16:16:45.143Z,23.15
2022-11-05T16:19:48.112Z,23.35
2022-11-05T16:22:15.690Z,23.05
2022-11-05T16:24:43.189Z,24.40
2022-11-05T16:27:28.522Z,22.65
2022-11-05T16:29:57.174Z,25.17
2022-11-05T16:32:30.820Z,26.30
2022-11-05T16:35:00.175Z,24.67
2022-11-05T16:37:27.763Z,26.83
2022-11-05T16:39:55.031Z,24.85
2022-11-05T16:42:23.746Z,26.17
2022-11-05T16:44:51.665Z,24.20
2022-11-05T16:47:19.349Z,30.20
2022-11-05T16:49:48.158Z,26.00
2022-11-05T16:52:15.733Z,29.17
2022-11-05T16:54:42.943Z,29.38
2022-11-05T16:57:21.731Z,33.75
2022-11-05T16:59:48.922Z,33.50
2022-11-05T17:02:16.236Z,32.65
2022-11-05T17:04:43.750Z,30.95
2022-11-05T17:07:10.935Z,30.65
2022-11-05T17:09:38.085Z,32.08
2022-11-05T17:12:05.545Z,33.05
2022-11-05T17:14:32.871Z,31.30
2022-11-05T17:17:02.946Z,29.98
2022-11-05T17:19:30.183Z,29.83
2022-11-05T17:21:57.375Z,28.73
2022-11-05T17:24:24.651Z,28.92
2022-11-05T17:26:51.999Z,31.77
2022-11-05T17:29:19.172Z,29.08
2022-11-05T17:31:46.341Z,28.17
2022-11-05T17:34:13.637Z,24.77
2022-11-05T17:36:40.810Z,26.17
2022-11-05T17:39:08.297Z,22.40
2022-11-05T17:41:35.584Z,23.92
2022-11-05T17:44:02.840Z,23.98
2022-11-05T17:46:30.014Z,18.70
2022-11-05T17:48:57.279Z,23.20
2022-11-05T17:51:24.492Z,25.88
2022-11-05T17:53:51.741Z,23.88
2022-11-05T17:56:32.095Z,24.60
2022-11-05T17:59:01.321Z,24.40
2022-11-05T18:01:30.149Z,21.52
2022-11-05T18:03:57.414Z,23.90
2022-11-05T18:06:24.605Z,24.45
2022-11-05T18:08:51.998Z,22.15
2022-11-05T18:11:19.330Z,20.20
2022-11-05T18:13:47.107Z,22.58
2022-11-05T18:16:14.363Z,21.55
2022-11-05T18:18:42.151Z,21.98
2022-11-05T18:21:09.421Z,21.67
2022-11-05T18:23:36.715Z,22.60
2022-11-05T18:26:09.082Z,21.35
2022-11-05T18:28:36.841Z,22.42
2022-11-05T18:31:04.978Z,21.80
2022-11-05T18:33:38.614Z,21.15
2022-11-05T18:38:32.826Z,19.15
2022-11-05T18:41:05.716Z,19.73
2022-11-05T18:43:32.868Z,18.83
2022-11-05T18:46:00.024Z,20.00
2022-11-05T18:48:27.574Z,21.15
2022-11-05T18:51:00.651Z,21.83
2022-11-05T18:53:29.067Z,20.83
2022-11-05T18:55:56.240Z,17.52
2022-11-05T18:58:23.384Z,19.30
2022-11-05T19:00:50.716Z,22.25
2022-11-05T19:03:17.868Z,15.93
2022-11-05T19:05:45.043Z,20.70
2022-11-05T19:08:12.455Z,19.73
2022-11-05T19:10:40.947Z,21.77
2022-11-05T19:13:08.096Z,20.98
2022-11-05T19:15:35.301Z,21.50
2022-11-05T19:18:02.556Z,19.90
2022-11-05T19:20:32.469Z,19.77
2022-11-05T19:23:04.023Z,19.75
2022-11-05T19:25:31.217Z,20.15
2022-11-05T19:27:58.728Z,21.48
2022-11-05T19:30:26.800Z,19.73
2022-11-05T19:32:54.016Z,20.05
2022-11-05T19:35:21.250Z,20.35
2022-11-05T19:37:50.328Z,19.52
2022-11-05T19:40:17.552Z,18.08
2022-11-05T19:42:44.718Z,16.17
2022-11-05T19:45:38.360Z,20.55
2022-11-05T19:47:59.365Z,21.02
2022-11-05T19:50:26.741Z,19.35
2022-11-05T19:52:53.960Z,20.40
2022-11-05T19:55:21.145Z,19.83
2022-11-05T19:57:48.530Z,19.83
2022-11-05T20:00:15.950Z,21.08
2022-11-05T20:02:44.730Z,20.77
2022-11-05T20:05:12.640Z,22.63
2022-11-05T20:07:40.023Z,18.52
2022-11-05T20:10:08.316Z,21.85
2022-11-05T20:12:35.985Z,20.35
2022-11-05T20:15:04.303Z,20.45
2022-11-05T20:17:31.486Z,18.80
2022-11-05T20:19:58.732Z,18.02
2022-11-05T20:22:25.863Z,20.35
2022-11-05T20:24:53.019Z,20.67
2022-11-05T20:27:20.329Z,21.52
2022-11-05T20:29:47.472Z,20.75
2022-11-05T20:32:14.857Z,20.05
2022-11-05T20:34:42.164Z,20.80
2022-11-05T20:37:09.308Z,20.20
2022-11-05T20:39:37.592Z,18.70
2022-11-05T20:42:05.011Z,21.95
2022-11-05T20:44:32.230Z,22.58
2022-11-05T20:46:59.388Z,21.55
2022-11-05T20:49:26.704Z,21.08
2022-11-05T20:51:54.167Z,22.40
2022-11-05T20:54:21.531Z,20.77
2022-11-05T20:56:48.753Z,21.42
2022-11-05T20:59:15.915Z,24.13
2022-11-05T21:01:43.843Z,22.90
2022-11-05T21:04:11.219Z,21.20
2022-11-05T21:06:41.328Z,25.88
2022-11-05T21:09:08.473Z,23.65
2022-11-05T21:11:54.675Z,22.98
2022-11-05T21:14:21.860Z,23.83
2022-11-05T21:16:49.028Z,20.15
2022-11-05T21:19:16.339Z,24.50
2022-11-05T21:21:43.496Z,24.33
2022-11-05T21:24:10.612Z,23.35
2022-11-05T21:26:37.794Z,24.70
2022-11-05T21:29:04.959Z,21.70
2022-11-05T21:31:32.077Z,24.63
2022-11-05T21:33:59.295Z,24.25
2022-11-05T21:36:26.410Z,23.60
2022-11-05T21:38:53.531Z,24.35
2022-11-05T21:41:20.800Z,25.67
2022-11-05T21:43:47.933Z,23.55
2022-11-05T21:46:15.121Z,25.17
2022-11-05T21:48:42.379Z,24.95
2022-11-05T21:51:29.387Z,25.38
2022-11-05T21:54:15.637Z,24.90
2022-11-05T21:57:05.885Z,24.27
2022-11-05T21:59:55.244Z,20.88
2022-11-05T22:02:23.693Z,25.08
2022-11-05T22:04:51.996Z,23.05
2022-11-05T22:07:21.167Z,27.25
2022-11-05T22:09:48.319Z,24.40
2022-11-05T22:12:15.711Z,23.63
2022-11-05T22:14:43.258Z,23.08
2022-11-05T22:17:10.993Z,26.45
2022-11-05T22:19:38.324Z,21.85
2022-11-05T22:22:06.211Z,23.27
2022-11-05T22:24:34.385Z,26.25
2022-11-05T22:27:02.699Z,26.10
2022-11-05T22:29:29.931Z,26.88
2022-11-05T22:31:57.226Z,28.77
2022-11-05T22:34:24.913Z,20.27
2022-11-05T22:36:52.392Z,24.45
2022-11-05T22:39:19.921Z,22.98
2022-11-05T22:41:47.457Z,26.48
2022-11-05T22:44:16.674Z,25.35
2022-11-05T22:46:43.946Z,24.38
2022-11-05T22:49:11.209Z,24.38
2022-11-05T22:51:39.319Z,25.20
2022-11-05T22:54:07.139Z,25.13
2022-11-05T22:56:36.589Z,26.63
2022-11-05T22:59:04.328Z,23.85
2022-11-05T23:01:31.701Z,25.27
2022-11-05T23:03:59.748Z,24.02
2022-11-05T23:06:49.850Z,26.17
2022-11-05T23:09:37.095Z,25.65
2022-11-05T23:12:05.575Z,25.75
2022-11-05T23:14:32.826Z,24.42
2022-11-05T23:17:19.248Z,26.48
2022-11-05T23:20:05.216Z,25.67
2022-11-05T23:22:51.279Z,23.35
2022-11-05T23:25:20.013Z,21.50
2022-11-05T23:27:48.650Z,25.20
2022-11-05T23:30:18.028Z,25.55
2022-11-05T23:32:45.412Z,24.00
2022-11-05T23:35:12.827Z,24.67
2022-11-05T23:37:59.032Z,24.33
2022-11-05T23:40:28.300Z,25.15
2022-11-05T23:43:14.177Z,25.17
2022-11-05T23:45:57.511Z,22.92
2022-11-05T23:48:30.518Z,23.73
2022-11-05T23:50:59.406Z,25.67
2022-11-05T23:53:26.805Z,25.10
2022-11-05T23:55:54.019Z,25.13
2022-11-05T23:58:21.165Z,24.42
